sensor_id;sensor_type;location;lat;lon;timestamp;pressure;altitude;pressure_sealevel;temperature
64600;BMP280;6553;48.412;9.514;2022-09-13T00:00:52;71928.59;;;22.35
64600;BMP280;6553;48.412;9.514;2022-09-13T00:03:19;71933.63;;;22.35
64600;BMP280;6553;48.412;9.514;2022-09-13T00:05:46;71926.50;;;22.33
64600;BMP280;6553;48.412;9.514;2022-09-13T00:08:12;71925.41;;;22.32
64600;BMP280;6553;48.412;9.514;2022-09-13T00:10:40;71933.63;;;22.35
64600;BMP280;6553;48.412;9.514;2022-09-13T00:13:08;71924.34;;;22.31
64600;BMP280;6553;48.412;9.514;2022-09-13T00:15:36;71920.94;;;22.33
64600;BMP280;6553;48.412;9.514;2022-09-13T00:18:02;71927.00;;;22.34
64600;BMP280;6553;48.412;9.514;2022-09-13T00:20:28;71928.75;;;22.33
64600;BMP280;6553;48.412;9.514;2022-09-13T00:22:54;71928.75;;;22.33
64600;BMP280;6553;48.412;9.514;2022-09-13T00:25:20;71927.66;;;22.32
64600;BMP280;6553;48.412;9.514;2022-09-13T00:27:46;71920.50;;;22.30
64600;BMP280;6553;48.412;9.514;2022-09-13T00:30:12;71925.03;;;22.29
64600;BMP280;6553;48.412;9.514;2022-09-13T00:32:38;71924.34;;;22.31
64600;BMP280;6553;48.412;9.514;2022-09-13T00:35:06;71923.81;;;22.31
64600;BMP280;6553;48.412;9.514;2022-09-13T00:37:32;71927.81;;;22.29
64600;BMP280;6553;48.412;9.514;2022-09-13T00:40:02;71923.41;;;22.28
64600;BMP280;6553;48.412;9.514;2022-09-13T00:42:31;71926.06;;;22.30
64600;BMP280;6553;48.412;9.514;2022-09-13T00:47:59;71926.06;;;22.30
64600;BMP280;6553;48.412;9.514;2022-09-13T00:53:15;71922.78;;;22.30
64600;BMP280;6553;48.412;9.514;2022-09-13T00:56:05;71923.28;;;22.30
64600;BMP280;6553;48.412;9.514;2022-09-13T00:58:59;71919.03;;;22.26
64600;BMP280;6553;48.412;9.514;2022-09-13T01:01:33;71926.19;;;22.28
64600;BMP280;6553;48.412;9.514;2022-09-13T01:04:02;71914.53;;;22.27
64600;BMP280;6553;48.412;9.514;2022-09-13T01:06:32;71921.16;;;22.28
64600;BMP280;6553;48.412;9.514;2022-09-13T01:09:00;71921.31;;;22.26
64600;BMP280;6553;48.412;9.514;2022-09-13T01:11:41;71923.41;;;22.28
64600;BMP280;6553;48.412;9.514;2022-09-13T01:14:11;71915.22;;;22.25
64600;BMP280;6553;48.412;9.514;2022-09-13T01:16:37;71919.03;;;22.26
64600;BMP280;6553;48.412;9.514;2022-09-13T01:19:03;71916.78;;;22.27
64600;BMP280;6553;48.412;9.514;2022-09-13T01:31:03;71914.13;;;22.24
64600;BMP280;6553;48.412;9.514;2022-09-13T01:48:22;71918.63;;;22.23
64600;BMP280;6553;48.412;9.514;2022-09-13T01:53:51;71912.00;;;22.22
64600;BMP280;6553;48.412;9.514;2022-09-13T01:56:30;71914.28;;;22.22
64600;BMP280;6553;48.412;9.514;2022-09-13T01:59:33;71911.50;;;22.22
64600;BMP280;6553;48.412;9.514;2022-09-13T02:02:07;71917.56;;;22.22
64600;BMP280;6553;48.412;9.514;2022-09-13T02:04:48;71914.28;;;22.22
64600;BMP280;6553;48.412;9.514;2022-09-13T02:07:25;71913.72;;;22.21
64600;BMP280;6553;48.412;9.514;2022-09-13T02:09:59;71916.50;;;22.21
64600;BMP280;6553;48.412;9.514;2022-09-13T02:12:30;71916.50;;;22.21
64600;BMP280;6553;48.412;9.514;2022-09-13T02:15:12;71912.66;;;22.20
64600;BMP280;6553;48.412;9.514;2022-09-13T02:17:51;71914.91;;;22.20
64600;BMP280;6553;48.412;9.514;2022-09-13T02:20:28;71908.81;;;22.19
64600;BMP280;6553;48.412;9.514;2022-09-13T02:23:05;71909.34;;;22.20
64600;BMP280;6553;48.412;9.514;2022-09-13T02:25:35;71912.25;;;22.17
64600;BMP280;6553;48.412;9.514;2022-09-13T02:28:09;71911.06;;;22.19
64600;BMP280;6553;48.412;9.514;2022-09-13T02:30:41;71910.00;;;22.18
64600;BMP280;6553;48.412;9.514;2022-09-13T02:36:28;71910.13;;;22.15
64600;BMP280;6553;48.412;9.514;2022-09-13T02:39:02;71915.03;;;22.17
64600;BMP280;6553;48.412;9.514;2022-09-13T02:41:38;71911.19;;;22.16
64600;BMP280;6553;48.412;9.514;2022-09-13T02:44:32;71911.06;;;22.19
64600;BMP280;6553;48.412;9.514;2022-09-13T02:47:46;71910.53;;;22.18
64600;BMP280;6553;48.412;9.514;2022-09-13T02:50:43;71903.50;;;22.14
64600;BMP280;6553;48.412;9.514;2022-09-13T02:56:24;71907.22;;;22.18
64600;BMP280;6553;48.412;9.514;2022-09-13T02:59:04;71908.41;;;22.16
64600;BMP280;6553;48.412;9.514;2022-09-13T03:01:36;71905.66;;;22.16
64600;BMP280;6553;48.412;9.514;2022-09-13T03:04:04;71905.66;;;22.16
64600;BMP280;6553;48.412;9.514;2022-09-13T03:06:30;71907.88;;;22.16
64600;BMP280;6553;48.412;9.514;2022-09-13T03:09:00;71907.88;;;22.16
64600;BMP280;6553;48.412;9.514;2022-09-13T03:14:50;71906.28;;;22.14
64600;BMP280;6553;48.412;9.514;2022-09-13T03:17:35;71907.34;;;22.15
64600;BMP280;6553;48.412;9.514;2022-09-13T03:20:20;71905.22;;;22.13
64600;BMP280;6553;48.412;9.514;2022-09-13T03:25:58;71910.78;;;22.13
64600;BMP280;6553;48.412;9.514;2022-09-13T03:32:01;71903.50;;;22.14
64600;BMP280;6553;48.412;9.514;2022-09-13T03:35:13;71904.69;;;22.13
64600;BMP280;6553;48.412;9.514;2022-09-13T03:37:58;71907.47;;;22.13
64600;BMP280;6553;48.412;9.514;2022-09-13T03:43:02;71901.38;;;22.12
64600;BMP280;6553;48.412;9.514;2022-09-13T03:45:36;71904.16;;;22.12
64600;BMP280;6553;48.412;9.514;2022-09-13T03:48:06;71899.91;;;22.08
64600;BMP280;6553;48.412;9.514;2022-09-13T03:50:33;71903.09;;;22.11
64600;BMP280;6553;48.412;9.514;2022-09-13T03:53:06;71899.25;;;22.10
64600;BMP280;6553;48.412;9.514;2022-09-13T03:55:38;71903.78;;;22.09
64600;BMP280;6553;48.412;9.514;2022-09-13T03:58:05;71900.44;;;22.09
64600;BMP280;6553;48.412;9.514;2022-09-13T04:00:31;71900.44;;;22.09
64600;BMP280;6553;48.412;9.514;2022-09-13T04:02:56;71900.06;;;22.06
64600;BMP280;6553;48.412;9.514;2022-09-13T04:05:22;71898.72;;;22.10
64600;BMP280;6553;48.412;9.514;2022-09-13T04:07:48;71897.66;;;22.09
64600;BMP280;6553;48.412;9.514;2022-09-13T04:10:14;71900.44;;;22.09
64600;BMP280;6553;48.412;9.514;2022-09-13T04:12:40;71900.97;;;22.09
64600;BMP280;6553;48.412;9.514;2022-09-13T04:15:07;71902.16;;;22.08
64600;BMP280;6553;48.412;9.514;2022-09-13T04:17:33;71896.06;;;22.07
64600;BMP280;6553;48.412;9.514;2022-09-13T04:19:59;71893.94;;;22.05
64600;BMP280;6553;48.412;9.514;2022-09-13T04:22:24;71898.97;;;22.05
64600;BMP280;6553;48.412;9.514;2022-09-13T04:24:50;71894.34;;;22.08
64600;BMP280;6553;48.412;9.514;2022-09-13T04:27:17;71898.31;;;22.07
64600;BMP280;6553;48.412;9.514;2022-09-13T04:29:43;71897.13;;;22.08
64600;BMP280;6553;48.412;9.514;2022-09-13T04:32:09;71897.78;;;22.06
64600;BMP280;6553;48.412;9.514;2022-09-13T04:34:35;71902.81;;;22.06
64600;BMP280;6553;48.412;9.514;2022-09-13T04:37:01;71897.78;;;22.06
64600;BMP280;6553;48.412;9.514;2022-09-13T04:39:27;71895.00;;;22.06
64600;BMP280;6553;48.412;9.514;2022-09-13T04:41:53;71895.00;;;22.06
64600;BMP280;6553;48.412;9.514;2022-09-13T04:44:20;71893.56;;;22.02
64600;BMP280;6553;48.412;9.514;2022-09-13T04:46:47;71890.63;;;22.05
64600;BMP280;6553;48.412;9.514;2022-09-13T04:49:15;71895.66;;;22.04
64600;BMP280;6553;48.412;9.514;2022-09-13T04:51:41;71893.56;;;22.02
64600;BMP280;6553;48.412;9.514;2022-09-13T04:54:09;71893.41;;;22.05
64600;BMP280;6553;48.412;9.514;2022-09-13T04:56:35;71890.78;;;22.02
64600;BMP280;6553;48.412;9.514;2022-09-13T04:59:01;71896.72;;;22.05
64600;BMP280;6553;48.412;9.514;2022-09-13T05:01:28;71892.88;;;22.04
64600;BMP280;6553;48.412;9.514;2022-09-13T05:03:54;71892.47;;;22.01
64600;BMP280;6553;48.412;9.514;2022-09-13T05:06:20;71896.34;;;22.02
64600;BMP280;6553;48.412;9.514;2022-09-13T05:08:53;71895.66;;;22.04
64600;BMP280;6553;48.412;9.514;2022-09-13T05:11:25;71896.19;;;22.05
64600;BMP280;6553;48.412;9.514;2022-09-13T05:13:54;71889.56;;;22.04
64600;BMP280;6553;48.412;9.514;2022-09-13T05:16:23;71895.66;;;22.04
64600;BMP280;6553;48.412;9.514;2022-09-13T05:18:50;71901.22;;;22.04
64600;BMP280;6553;48.412;9.514;2022-09-13T05:21:17;71894.50;;;22.06
64600;BMP280;6553;48.412;9.514;2022-09-13T05:23:43;71898.97;;;22.05
64600;BMP280;6553;48.412;9.514;2022-09-13T05:26:10;71899.50;;;22.05
64600;BMP280;6553;48.412;9.514;2022-09-13T05:28:36;71900.69;;;22.04
64600;BMP280;6553;48.412;9.514;2022-09-13T05:31:06;71893.94;;;22.05
64600;BMP280;6553;48.412;9.514;2022-09-13T05:33:36;71896.19;;;22.05
64600;BMP280;6553;48.412;9.514;2022-09-13T05:36:04;71898.44;;;22.04
64600;BMP280;6553;48.412;9.514;2022-09-13T05:38:31;71901.22;;;22.04
64600;BMP280;6553;48.412;9.514;2022-09-13T05:41:00;71896.34;;;22.02
64600;BMP280;6553;48.412;9.514;2022-09-13T05:43:33;71895.66;;;22.04
64600;BMP280;6553;48.412;9.514;2022-09-13T05:46:11;71895.66;;;22.04
64600;BMP280;6553;48.412;9.514;2022-09-13T05:48:38;71891.81;;;22.03
64600;BMP280;6553;48.412;9.514;2022-09-13T05:54:53;71900.56;;;22.06
64600;BMP280;6553;48.412;9.514;2022-09-13T05:57:18;71890.09;;;22.04
64600;BMP280;6553;48.412;9.514;2022-09-13T05:59:44;71899.50;;;22.05
64600;BMP280;6553;48.412;9.514;2022-09-13T06:02:12;71895.66;;;22.04
64600;BMP280;6553;48.412;9.514;2022-09-13T06:04:38;71891.19;;;22.05
64600;BMP280;6553;48.412;9.514;2022-09-13T06:07:03;71897.78;;;22.06
64600;BMP280;6553;48.412;9.514;2022-09-13T06:09:29;71893.94;;;22.05
64600;BMP280;6553;48.412;9.514;2022-09-13T06:11:55;71894.50;;;22.06
64600;BMP280;6553;48.412;9.514;2022-09-13T06:14:20;71892.22;;;22.06
64600;BMP280;6553;48.412;9.514;2022-09-13T06:16:46;71897.78;;;22.06
64600;BMP280;6553;48.412;9.514;2022-09-13T06:19:12;71895.53;;;22.07
64600;BMP280;6553;48.412;9.514;2022-09-13T06:21:38;71895.66;;;22.04
64600;BMP280;6553;48.412;9.514;2022-09-13T06:24:04;71904.94;;;22.08
64600;BMP280;6553;48.412;9.514;2022-09-13T06:26:30;71905.47;;;22.08
64600;BMP280;6553;48.412;9.514;2022-09-13T06:28:57;71893.28;;;22.07
64600;BMP280;6553;48.412;9.514;2022-09-13T06:31:26;71902.81;;;22.06
64600;BMP280;6553;48.412;9.514;2022-09-13T06:33:59;71897.66;;;22.09
64600;BMP280;6553;48.412;9.514;2022-09-13T06:36:27;71899.91;;;22.08
64600;BMP280;6553;48.412;9.514;2022-09-13T06:38:53;71907.59;;;22.10
64600;BMP280;6553;48.412;9.514;2022-09-13T06:41:22;71901.50;;;22.10
64600;BMP280;6553;48.412;9.514;2022-09-13T06:43:57;71901.50;;;22.10
64600;BMP280;6553;48.412;9.514;2022-09-13T06:46:25;71901.50;;;22.10
64600;BMP280;6553;48.412;9.514;2022-09-13T06:48:51;71904.69;;;22.13
64600;BMP280;6553;48.412;9.514;2022-09-13T06:51:23;71901.94;;;22.13
64600;BMP280;6553;48.412;9.514;2022-09-13T06:53:51;71899.66;;;22.13
64600;BMP280;6553;48.412;9.514;2022-09-13T06:56:26;71903.91;;;22.17
64600;BMP280;6553;48.412;9.514;2022-09-13T06:59:00;71910.78;;;22.13
64600;BMP280;6553;48.412;9.514;2022-09-13T07:01:37;71912.25;;;22.17
64600;BMP280;6553;48.412;9.514;2022-09-13T07:04:09;71916.63;;;22.19
64600;BMP280;6553;48.412;9.514;2022-09-13T07:06:39;71911.59;;;22.19
64600;BMP280;6553;48.412;9.514;2022-09-13T07:09:10;71914.38;;;22.19
64600;BMP280;6553;48.412;9.514;2022-09-13T07:11:39;71919.28;;;22.21
64600;BMP280;6553;48.412;9.514;2022-09-13T07:14:06;71915.97;;;22.21
64600;BMP280;6553;48.412;9.514;2022-09-13T07:16:36;71915.44;;;22.20
64600;BMP280;6553;48.412;9.514;2022-09-13T07:19:20;71918.53;;;22.26
64600;BMP280;6553;48.412;9.514;2022-09-13T07:21:52;71920.78;;;22.25
64600;BMP280;6553;48.412;9.514;2022-09-13T07:24:20;71909.75;;;22.23
64600;BMP280;6553;48.412;9.514;2022-09-13T07:26:47;71923.41;;;22.28
64600;BMP280;6553;48.412;9.514;2022-09-13T07:29:20;71922.25;;;22.29
64600;BMP280;6553;48.412;9.514;2022-09-13T07:31:50;71923.81;;;22.31
64600;BMP280;6553;48.412;9.514;2022-09-13T07:34:19;71927.53;;;22.34
64600;BMP280;6553;48.412;9.514;2022-09-13T07:36:46;71931.91;;;22.36
64600;BMP280;6553;48.412;9.514;2022-09-13T07:39:14;71937.34;;;22.38
64600;BMP280;6553;48.412;9.514;2022-09-13T07:41:40;71932.88;;;22.39
64600;BMP280;6553;48.412;9.514;2022-09-13T07:44:09;71940.94;;;22.44
64600;BMP280;6553;48.412;9.514;2022-09-13T07:46:36;71945.22;;;22.48
64600;BMP280;6553;48.412;9.514;2022-09-13T07:49:05;71946.69;;;22.52
64600;BMP280;6553;48.412;9.514;2022-09-13T07:51:35;71953.19;;;22.56
64600;BMP280;6553;48.412;9.514;2022-09-13T07:54:04;71954.13;;;22.60
64600;BMP280;6553;48.412;9.514;2022-09-13T07:56:36;71960.09;;;22.63
64600;BMP280;6553;48.412;9.514;2022-09-13T07:59:06;71965.94;;;22.68
64600;BMP280;6553;48.412;9.514;2022-09-13T08:01:47;71963.16;;;22.68
64600;BMP280;6553;48.412;9.514;2022-09-13T08:04:19;71971.38;;;22.71
64600;BMP280;6553;48.412;9.514;2022-09-13T08:06:46;71966.88;;;22.72
64600;BMP280;6553;48.412;9.514;2022-09-13T08:09:13;71972.44;;;22.72
64600;BMP280;6553;48.412;9.514;2022-09-13T08:11:50;71969.00;;;22.74
64600;BMP280;6553;48.412;9.514;2022-09-13T08:14:20;71970.06;;;22.75
64600;BMP280;6553;48.412;9.514;2022-09-13T08:16:47;71969.53;;;22.74
64600;BMP280;6553;48.412;9.514;2022-09-13T08:19:16;71970.06;;;22.75
64600;BMP280;6553;48.412;9.514;2022-09-13T08:21:44;71976.69;;;22.76
64600;BMP280;6553;48.412;9.514;2022-09-13T08:24:19;71972.19;;;22.77
64600;BMP280;6553;48.412;9.514;2022-09-13T08:26:47;71973.91;;;22.76
64600;BMP280;6553;48.412;9.514;2022-09-13T08:29:14;71973.91;;;22.76
64600;BMP280;6553;48.412;9.514;2022-09-13T08:31:40;71974.44;;;22.76
64600;BMP280;6553;48.412;9.514;2022-09-13T08:34:12;71969.00;;;22.74
64600;BMP280;6553;48.412;9.514;2022-09-13T08:36:39;71972.84;;;22.75
64600;BMP280;6553;48.412;9.514;2022-09-13T08:39:06;71975.63;;;22.75
64600;BMP280;6553;48.412;9.514;2022-09-13T08:41:49;71970.72;;;22.73
64600;BMP280;6553;48.412;9.514;2022-09-13T08:44:44;71969.53;;;22.74
64600;BMP280;6553;48.412;9.514;2022-09-13T08:49:58;71975.09;;;22.74
64600;BMP280;6553;48.412;9.514;2022-09-13T08:52:33;71970.06;;;22.75
64600;BMP280;6553;48.412;9.514;2022-09-13T08:55:17;71967.28;;;22.75
64600;BMP280;6553;48.412;9.514;2022-09-13T08:58:04;71967.91;;;22.73
64600;BMP280;6553;48.412;9.514;2022-09-13T09:00:43;71969.00;;;22.74
64600;BMP280;6553;48.412;9.514;2022-09-13T09:03:42;71971.25;;;22.73
64600;BMP280;6553;48.412;9.514;2022-09-13T09:06:14;71968.47;;;22.73
64600;BMP280;6553;48.412;9.514;2022-09-13T09:08:48;71968.47;;;22.73
64600;BMP280;6553;48.412;9.514;2022-09-13T09:11:38;71967.41;;;22.72
64600;BMP280;6553;48.412;9.514;2022-09-13T09:14:26;71972.44;;;22.72
64600;BMP280;6553;48.412;9.514;2022-09-13T09:17:04;71969.53;;;22.74
64600;BMP280;6553;48.412;9.514;2022-09-13T09:19:43;71971.25;;;22.73
64600;BMP280;6553;48.412;9.514;2022-09-13T09:22:19;71970.72;;;22.73
64600;BMP280;6553;48.412;9.514;2022-09-13T09:24:56;71969.00;;;22.74
64600;BMP280;6553;48.412;9.514;2022-09-13T09:27:22;71969.53;;;22.74
64600;BMP280;6553;48.412;9.514;2022-09-13T09:29:51;71966.22;;;22.74
64600;BMP280;6553;48.412;9.514;2022-09-13T09:32:32;71972.84;;;22.75
64600;BMP280;6553;48.412;9.514;2022-09-13T09:35:32;71970.06;;;22.75
64600;BMP280;6553;48.412;9.514;2022-09-13T09:38:34;71969.00;;;22.74
64600;BMP280;6553;48.412;9.514;2022-09-13T09:41:11;71974.03;;;22.73
64600;BMP280;6553;48.412;9.514;2022-09-13T09:43:49;71969.66;;;22.72
64600;BMP280;6553;48.412;9.514;2022-09-13T09:46:24;71972.44;;;22.72
64600;BMP280;6553;48.412;9.514;2022-09-13T09:48:56;71965.81;;;22.71
64600;BMP280;6553;48.412;9.514;2022-09-13T09:51:28;71973.50;;;22.73
64600;BMP280;6553;48.412;9.514;2022-09-13T09:54:01;71967.91;;;22.73
64600;BMP280;6553;48.412;9.514;2022-09-13T09:56:32;71965.13;;;22.73
64600;BMP280;6553;48.412;9.514;2022-09-13T09:58:59;71974.56;;;22.74
64600;BMP280;6553;48.412;9.514;2022-09-13T10:01:31;71972.31;;;22.74
64600;BMP280;6553;48.412;9.514;2022-09-13T10:04:06;71975.63;;;22.75
64600;BMP280;6553;48.412;9.514;2022-09-13T10:06:36;71974.97;;;22.77
64600;BMP280;6553;48.412;9.514;2022-09-13T10:11:46;71975.50;;;22.77
64600;BMP280;6553;48.412;9.514;2022-09-13T10:14:40;71964.50;;;22.75
64600;BMP280;6553;48.412;9.514;2022-09-13T10:17:28;71973.38;;;22.75
64600;BMP280;6553;48.412;9.514;2022-09-13T10:22:28;71977.22;;;22.76
64600;BMP280;6553;48.412;9.514;2022-09-13T10:24:54;71966.22;;;22.74
64600;BMP280;6553;48.412;9.514;2022-09-13T10:27:37;71966.22;;;22.74
64600;BMP280;6553;48.412;9.514;2022-09-13T10:30:30;71974.44;;;22.76
64600;BMP280;6553;48.412;9.514;2022-09-13T10:32:57;71972.72;;;22.77
64600;BMP280;6553;48.412;9.514;2022-09-13T10:35:24;71975.91;;;22.80
64600;BMP280;6553;48.412;9.514;2022-09-13T10:37:50;71976.44;;;22.81
64600;BMP280;6553;48.412;9.514;2022-09-13T10:40:27;71976.97;;;22.81
64600;BMP280;6553;48.412;9.514;2022-09-13T10:42:57;71973.66;;;22.81
64600;BMP280;6553;48.412;9.514;2022-09-13T10:45:30;71975.38;;;22.80
64600;BMP280;6553;48.412;9.514;2022-09-13T10:48:14;71976.44;;;22.81
64600;BMP280;6553;48.412;9.514;2022-09-13T10:51:35;71978.69;;;22.80
64600;BMP280;6553;48.412;9.514;2022-09-13T10:56:36;71979.75;;;22.81
64600;BMP280;6553;48.412;9.514;2022-09-13T10:59:35;71979.75;;;22.81
64600;BMP280;6553;48.412;9.514;2022-09-13T11:02:48;71979.22;;;22.81
64600;BMP280;6553;48.412;9.514;2022-09-13T11:06:10;71976.44;;;22.81
64600;BMP280;6553;48.412;9.514;2022-09-13T11:14:46;71973.13;;;22.80
64600;BMP280;6553;48.412;9.514;2022-09-13T11:20:41;71976.44;;;22.81
64600;BMP280;6553;48.412;9.514;2022-09-13T11:29:54;71982.00;;;22.81
64600;BMP280;6553;48.412;9.514;2022-09-13T11:32:25;71977.50;;;22.82
64600;BMP280;6553;48.412;9.514;2022-09-13T11:35:27;71979.09;;;22.83
64600;BMP280;6553;48.412;9.514;2022-09-13T11:41:40;71984.09;;;22.83
64600;BMP280;6553;48.412;9.514;2022-09-13T11:44:40;71978.03;;;22.82
64600;BMP280;6553;48.412;9.514;2022-09-13T11:51:03;71980.69;;;22.85
64600;BMP280;6553;48.412;9.514;2022-09-13T11:53:22;71986.78;;;22.85
64600;BMP280;6553;48.412;9.514;2022-09-13T11:55:59;71981.22;;;22.85
64600;BMP280;6553;48.412;9.514;2022-09-13T11:58:45;71986.78;;;22.85
64600;BMP280;6553;48.412;9.514;2022-09-13T12:01:22;71984.00;;;22.85
64600;BMP280;6553;48.412;9.514;2022-09-13T12:04:15;71980.69;;;22.85
64600;BMP280;6553;48.412;9.514;2022-09-13T12:06:56;71986.66;;;22.88
64600;BMP280;6553;48.412;9.514;2022-09-13T12:09:37;71983.34;;;22.87
64600;BMP280;6553;48.412;9.514;2022-09-13T12:12:13;71984.41;;;22.88
64600;BMP280;6553;48.412;9.514;2022-09-13T12:14:53;71989.84;;;22.91
64600;BMP280;6553;48.412;9.514;2022-09-13T12:17:38;71990.50;;;22.89
64600;BMP280;6553;48.412;9.514;2022-09-13T12:20:27;71992.63;;;22.91
64600;BMP280;6553;48.412;9.514;2022-09-13T12:22:57;71989.84;;;22.91
64600;BMP280;6553;48.412;9.514;2022-09-13T12:25:38;71988.13;;;22.92
64600;BMP280;6553;48.412;9.514;2022-09-13T12:28:23;71993.16;;;22.91
64600;BMP280;6553;48.412;9.514;2022-09-13T12:31:01;71988.66;;;22.92
64600;BMP280;6553;48.412;9.514;2022-09-13T12:33:29;71990.25;;;22.94
64600;BMP280;6553;48.412;9.514;2022-09-13T12:48:27;71994.50;;;22.98
64600;BMP280;6553;48.412;9.514;2022-09-13T12:51:28;71993.56;;;22.94
64600;BMP280;6553;48.412;9.514;2022-09-13T13:00:24;71997.81;;;22.98
64600;BMP280;6553;48.412;9.514;2022-09-13T13:02:59;71996.09;;;22.99
64600;BMP280;6553;48.412;9.514;2022-09-13T13:11:08;71998.34;;;22.99
64600;BMP280;6553;48.412;9.514;2022-09-13T13:13:37;71995.56;;;22.99
64600;BMP280;6553;48.412;9.514;2022-09-13T13:18:50;71990.13;;;22.96
64600;BMP280;6553;48.412;9.514;2022-09-13T13:21:43;72002.22;;;23.00
64600;BMP280;6553;48.412;9.514;2022-09-13T13:26:58;71998.34;;;22.99
64600;BMP280;6553;48.412;9.514;2022-09-13T13:29:29;71999.44;;;23.00
64600;BMP280;6553;48.412;9.514;2022-09-13T13:34:46;72001.69;;;22.99
64600;BMP280;6553;48.412;9.514;2022-09-13T13:39:45;71998.91;;;22.99
64600;BMP280;6553;48.412;9.514;2022-09-13T13:42:31;72004.31;;;23.02
64600;BMP280;6553;48.412;9.514;2022-09-13T13:50:15;72003.28;;;23.01
64600;BMP280;6553;48.412;9.514;2022-09-13T13:55:43;72002.06;;;23.02
64600;BMP280;6553;48.412;9.514;2022-09-13T14:00:53;72003.78;;;23.01
64600;BMP280;6553;48.412;9.514;2022-09-13T14:06:51;71998.22;;;23.01
64600;BMP280;6553;48.412;9.514;2022-09-13T14:12:33;72007.50;;;23.05
64600;BMP280;6553;48.412;9.514;2022-09-13T14:21:16;72001.41;;;23.04
64600;BMP280;6553;48.412;9.514;2022-09-13T14:23:42;72000.38;;;23.03
64600;BMP280;6553;48.412;9.514;2022-09-13T14:26:10;72010.81;;;23.05
64600;BMP280;6553;48.412;9.514;2022-09-13T14:28:37;72007.50;;;23.05
64600;BMP280;6553;48.412;9.514;2022-09-13T14:31:04;72006.34;;;23.06
64600;BMP280;6553;48.412;9.514;2022-09-13T14:33:35;72004.19;;;23.04
64600;BMP280;6553;48.412;9.514;2022-09-13T14:36:13;72008.03;;;23.05
64600;BMP280;6553;48.412;9.514;2022-09-13T14:38:51;72011.91;;;23.06
64600;BMP280;6553;48.412;9.514;2022-09-13T14:41:28;72002.63;;;23.03
64600;BMP280;6553;48.412;9.514;2022-09-13T14:44:22;72008.56;;;23.06
64600;BMP280;6553;48.412;9.514;2022-09-13T14:49:27;72001.94;;;23.05
64600;BMP280;6553;48.412;9.514;2022-09-13T14:55:00;72005.13;;;23.08
64600;BMP280;6553;48.412;9.514;2022-09-13T14:57:36;72002.63;;;23.03
64600;BMP280;6553;48.412;9.514;2022-09-13T15:00:22;72004.72;;;23.05
64600;BMP280;6553;48.412;9.514;2022-09-13T15:02:54;72003.16;;;23.03
64600;BMP280;6553;48.412;9.514;2022-09-13T15:05:27;72006.44;;;23.04
64600;BMP280;6553;48.412;9.514;2022-09-13T15:07:54;72007.50;;;23.05
64600;BMP280;6553;48.412;9.514;2022-09-13T15:10:42;72005.78;;;23.06
64600;BMP280;6553;48.412;9.514;2022-09-13T15:13:09;72009.66;;;23.07
64600;BMP280;6553;48.412;9.514;2022-09-13T15:15:43;72001.94;;;23.05
64600;BMP280;6553;48.412;9.514;2022-09-13T15:20:58;72007.94;;;23.08
64600;BMP280;6553;48.412;9.514;2022-09-13T15:23:38;72006.88;;;23.07
64600;BMP280;6553;48.412;9.514;2022-09-13T15:26:21;72005.78;;;23.06
64600;BMP280;6553;48.412;9.514;2022-09-13T15:28:51;72006.88;;;23.07
64600;BMP280;6553;48.412;9.514;2022-09-13T15:31:25;72014.16;;;23.06
64600;BMP280;6553;48.412;9.514;2022-09-13T15:37:08;71999.28;;;23.02
64600;BMP280;6553;48.412;9.514;2022-09-13T15:40:00;71999.03;;;23.07
64600;BMP280;6553;48.412;9.514;2022-09-13T15:42:26;72005.69;;;23.08
64600;BMP280;6553;48.412;9.514;2022-09-13T15:44:52;72007.38;;;23.07
64600;BMP280;6553;48.412;9.514;2022-09-13T15:47:18;72003.56;;;23.06
64600;BMP280;6553;48.412;9.514;2022-09-13T15:49:51;72009.13;;;23.06
64600;BMP280;6553;48.412;9.514;2022-09-13T15:52:18;72003.56;;;23.06
64600;BMP280;6553;48.412;9.514;2022-09-13T15:54:48;72001.81;;;23.07
64600;BMP280;6553;48.412;9.514;2022-09-13T15:57:20;72007.94;;;23.08
64600;BMP280;6553;48.412;9.514;2022-09-13T15:59:47;72010.72;;;23.08
64600;BMP280;6553;48.412;9.514;2022-09-13T16:02:20;72007.94;;;23.08
64600;BMP280;6553;48.412;9.514;2022-09-13T16:04:46;72010.72;;;23.08
64600;BMP280;6553;48.412;9.514;2022-09-13T16:07:14;72013.50;;;23.08
64600;BMP280;6553;48.412;9.514;2022-09-13T16:09:41;72014.53;;;23.09
64600;BMP280;6553;48.412;9.514;2022-09-13T16:12:07;72009.66;;;23.07
64600;BMP280;6553;48.412;9.514;2022-09-13T16:14:33;72009.50;;;23.09
64600;BMP280;6553;48.412;9.514;2022-09-13T16:17:22;72004.09;;;23.07
64600;BMP280;6553;48.412;9.514;2022-09-13T16:19:48;72006.88;;;23.07
64600;BMP280;6553;48.412;9.514;2022-09-13T16:22:14;72007.38;;;23.07
64600;BMP280;6553;48.412;9.514;2022-09-13T16:24:40;72004.59;;;23.07
64600;BMP280;6553;48.412;9.514;2022-09-13T16:27:06;72004.09;;;23.07
64600;BMP280;6553;48.412;9.514;2022-09-13T16:29:32;72010.72;;;23.08
64600;BMP280;6553;48.412;9.514;2022-09-13T16:31:58;72006.88;;;23.07
64600;BMP280;6553;48.412;9.514;2022-09-13T16:34:26;72010.72;;;23.08
64600;BMP280;6553;48.412;9.514;2022-09-13T16:36:52;72004.09;;;23.07
64600;BMP280;6553;48.412;9.514;2022-09-13T16:39:18;72002.47;;;23.05
64600;BMP280;6553;48.412;9.514;2022-09-13T16:41:44;72008.56;;;23.06
64600;BMP280;6553;48.412;9.514;2022-09-13T16:44:10;72003.56;;;23.06
64600;BMP280;6553;48.412;9.514;2022-09-13T16:46:36;72004.09;;;23.07
64600;BMP280;6553;48.412;9.514;2022-09-13T16:49:02;72012.94;;;23.07
64600;BMP280;6553;48.412;9.514;2022-09-13T16:51:29;72001.81;;;23.07
64600;BMP280;6553;48.412;9.514;2022-09-13T16:53:55;72001.81;;;23.07
64600;BMP280;6553;48.412;9.514;2022-09-13T16:56:24;72007.38;;;23.07
64600;BMP280;6553;48.412;9.514;2022-09-13T16:58:52;72003.00;;;23.06
64600;BMP280;6553;48.412;9.514;2022-09-13T17:01:25;72006.34;;;23.06
64600;BMP280;6553;48.412;9.514;2022-09-13T17:03:52;72005.25;;;23.05
64600;BMP280;6553;48.412;9.514;2022-09-13T17:06:20;72005.25;;;23.05
64600;BMP280;6553;48.412;9.514;2022-09-13T17:08:54;72004.09;;;23.07
64600;BMP280;6553;48.412;9.514;2022-09-13T17:11:23;72006.34;;;23.06
64600;BMP280;6553;48.412;9.514;2022-09-13T17:13:49;72006.34;;;23.06
64600;BMP280;6553;48.412;9.514;2022-09-13T17:16:36;72003.56;;;23.06
64600;BMP280;6553;48.412;9.514;2022-09-13T17:19:09;72005.78;;;23.06
64600;BMP280;6553;48.412;9.514;2022-09-13T17:21:36;72003.56;;;23.06
64600;BMP280;6553;48.412;9.514;2022-09-13T17:24:03;72007.94;;;23.08
64600;BMP280;6553;48.412;9.514;2022-09-13T17:26:30;72009.13;;;23.06
64600;BMP280;6553;48.412;9.514;2022-09-13T17:28:55;72008.56;;;23.06
64600;BMP280;6553;48.412;9.514;2022-09-13T17:31:22;72006.34;;;23.06
64600;BMP280;6553;48.412;9.514;2022-09-13T17:33:47;72000.22;;;23.06